Time;durP1;ratioP1;P1;durP2;ratioP2;P2;SDS_P1;SDS_P2;PMS_P1;PMS_P2;Temp;Humidity;BMP_temperature;BMP_pressure;BME280_temperature;BME280_humidity;BME280_pressure;Samples;Min_cycle;Max_cycle;Signal;HPM_P1;HPM_P2
2023/09/26 00:00:22;;;;;;;3.43;2.30;;;;;;;;;;465158;28;1314;-69
2023/09/26 00:00:38;;;;;;;3.40;2.10;;;;;;;;;;464822;28;989;-69
2023/09/26 00:00:54;;;;;;;2.90;2.10;;;;;;;;;;466128;28;1575;-69
2023/09/26 00:01:12;;;;;;;3.50;2.17;;;;;;;;;;467096;28;1316;-69
2023/09/26 00:01:28;;;;;;;3.58;2.17;;;;;;;;;;467244;28;993;-69
2023/09/26 00:01:43;;;;;;;3.00;2.15;;;;;;;;;;467525;28;1344;-70
2023/09/26 00:02:00;;;;;;;2.87;2.20;;;;;;;;;;467102;28;1222;-69
2023/09/26 00:02:15;;;;;;;4.10;2.30;;;;;;;;;;466119;28;1200;-70
2023/09/26 00:02:31;;;;;;;4.20;2.30;;;;;;;;;;465824;28;1706;-69
2023/09/26 00:02:47;;;;;;;3.37;2.10;;;;;;;;;;466007;28;1096;-69
2023/09/26 00:03:05;;;;;;;3.70;2.05;;;;;;;;;;466928;28;1360;-70
2023/09/26 00:03:20;;;;;;;3.72;2.10;;;;;;;;;;468884;28;938;-69
2023/09/26 00:03:35;;;;;;;3.38;2.10;;;;;;;;;;467722;28;1158;-69
2023/09/26 00:03:51;;;;;;;3.70;2.20;;;;;;;;;;465334;28;1251;-69
2023/09/26 00:04:07;;;;;;;4.57;2.20;;;;;;;;;;464770;28;1078;-69
2023/09/26 00:04:22;;;;;;;4.32;2.10;;;;;;;;;;463497;28;1199;-69
2023/09/26 00:04:38;;;;;;;2.93;2.03;;;;;;;;;;464851;28;1233;-69
2023/09/26 00:04:54;;;;;;;2.93;2.10;;;;;;;;;;465585;28;1177;-69
2023/09/26 00:05:09;;;;;;;4.05;2.38;;;;;;;;;;465842;28;1196;-69
2023/09/26 00:05:25;;;;;;;4.47;2.50;;;;;;;;;;465748;28;1072;-69
2023/09/26 00:05:40;;;;;;;3.67;2.20;;;;;;;;;;464995;28;1238;-69
2023/09/26 00:05:55;;;;;;;3.13;2.10;;;;;;;;;;464594;28;902;-69
2023/09/26 00:06:21;;;;;;;3.63;2.20;;;;;;;;;;464672;28;1141;-69
2023/09/26 00:06:37;;;;;;;4.57;2.20;;;;;;;;;;466245;28;1548;-69
2023/09/26 00:06:54;;;;;;;5.47;2.10;;;;;;;;;;468117;28;1097;-69
2023/09/26 00:07:10;;;;;;;3.97;2.17;;;;;;;;;;468683;28;891;-70
2023/09/26 00:07:27;;;;;;;3.38;2.17;;;;;;;;;;467891;28;1073;-69
2023/09/26 00:07:42;;;;;;;3.25;2.13;;;;;;;;;;469550;28;1387;-69
2023/09/26 00:08:02;;;;;;;3.42;2.05;;;;;;;;;;467977;28;1157;-69
2023/09/26 00:08:18;;;;;;;3.88;2.20;;;;;;;;;;469682;28;1165;-69
2023/09/26 00:08:33;;;;;;;4.80;2.30;;;;;;;;;;469775;28;1234;-69
2023/09/26 00:08:54;;;;;;;4.87;2.10;;;;;;;;;;466538;28;1159;-69
2023/09/26 00:09:10;;;;;;;4.10;2.08;;;;;;;;;;465551;28;1413;-70
2023/09/26 00:09:30;;;;;;;3.38;1.92;;;;;;;;;;462446;28;1163;-69
2023/09/26 00:09:45;;;;;;;3.83;2.05;;;;;;;;;;460046;28;1188;-69
2023/09/26 00:10:01;;;;;;;3.58;2.10;;;;;;;;;;463087;28;1266;-69
2023/09/26 00:10:16;;;;;;;3.17;2.13;;;;;;;;;;464793;28;987;-69
2023/09/26 00:10:32;;;;;;;3.45;2.20;;;;;;;;;;464740;28;930;-69
2023/09/26 00:10:47;;;;;;;3.57;2.27;;;;;;;;;;463473;28;1152;-69
2023/09/26 00:11:02;;;;;;;3.20;2.10;;;;;;;;;;464411;28;1170;-69
2023/09/26 00:11:19;;;;;;;3.40;2.00;;;;;;;;;;466579;28;1176;-69
2023/09/26 00:11:34;;;;;;;4.20;2.10;;;;;;;;;;467249;28;1250;-69
2023/09/26 00:11:49;;;;;;;3.53;2.28;;;;;;;;;;465860;28;1098;-70
2023/09/26 00:12:05;;;;;;;3.53;2.30;;;;;;;;;;463694;28;1121;-69
2023/09/26 00:12:20;;;;;;;3.70;2.22;;;;;;;;;;464399;28;1147;-69
2023/09/26 00:12:36;;;;;;;3.13;2.17;;;;;;;;;;463851;28;1010;-69
2023/09/26 00:12:51;;;;;;;2.83;2.08;;;;;;;;;;462273;28;1217;-69
2023/09/26 00:13:07;;;;;;;3.17;2.10;;;;;;;;;;461778;28;1073;-70
2023/09/26 00:13:22;;;;;;;2.95;2.10;;;;;;;;;;462767;28;876;-69
2023/09/26 00:13:38;;;;;;;2.50;1.97;;;;;;;;;;464737;28;1286;-69
2023/09/26 00:13:54;;;;;;;2.70;2.00;;;;;;;;;;465782;28;950;-69
2023/09/26 00:14:10;;;;;;;3.00;2.03;;;;;;;;;;468337;28;980;-69
2023/09/26 00:14:26;;;;;;;2.92;2.13;;;;;;;;;;466769;28;1200;-69
2023/09/26 00:14:43;;;;;;;3.20;2.20;;;;;;;;;;463960;28;1657;-69
2023/09/26 00:15:00;;;;;;;3.53;2.20;;;;;;;;;;463812;28;2005;-69
2023/09/26 00:15:15;;;;;;;3.33;2.20;;;;;;;;;;465005;28;1187;-70
2023/09/26 00:15:31;;;;;;;2.77;2.10;;;;;;;;;;466779;28;1389;-69
2023/09/26 00:15:46;;;;;;;3.33;2.00;;;;;;;;;;467054;28;1289;-69
2023/09/26 00:16:03;;;;;;;4.27;2.10;;;;;;;;;;463153;28;1854;-70
2023/09/26 00:16:18;;;;;;;4.63;2.28;;;;;;;;;;464183;28;1002;-69
2023/09/26 00:16:34;;;;;;;4.90;2.30;;;;;;;;;;463100;28;1306;-70
2023/09/26 00:16:49;;;;;;;3.22;2.15;;;;;;;;;;464113;28;1165;-69
2023/09/26 00:17:05;;;;;;;3.43;2.20;;;;;;;;;;462831;28;1062;-69
2023/09/26 00:17:20;;;;;;;4.40;2.20;;;;;;;;;;460979;28;1036;-69
2023/09/26 00:17:36;;;;;;;3.20;2.00;;;;;;;;;;460740;28;1003;-69
2023/09/26 00:17:51;;;;;;;2.88;2.10;;;;;;;;;;462644;28;1122;-70
2023/09/26 00:18:07;;;;;;;3.60;2.10;;;;;;;;;;461331;28;1061;-69
2023/09/26 00:18:22;;;;;;;3.95;2.13;;;;;;;;;;461198;28;1458;-69
2023/09/26 00:18:40;;;;;;;3.47;2.10;;;;;;;;;;462043;28;1262;-69
2023/09/26 00:18:55;;;;;;;3.10;1.90;;;;;;;;;;462355;28;937;-69
2023/09/26 00:19:11;;;;;;;3.07;1.90;;;;;;;;;;462520;28;1338;-69
2023/09/26 00:19:27;;;;;;;3.00;2.00;;;;;;;;;;463803;28;1248;-69
2023/09/26 00:19:43;;;;;;;3.28;2.00;;;;;;;;;;463346;28;1211;-70
2023/09/26 00:19:58;;;;;;;4.03;2.05;;;;;;;;;;465028;28;962;-69
2023/09/26 00:20:30;;;;;;;3.87;2.10;;;;;;;;;;465121;28;1313;-70
2023/09/26 00:20:46;;;;;;;3.30;2.20;;;;;;;;;;467450;28;1250;-69
2023/09/26 00:21:01;;;;;;;2.90;2.10;;;;;;;;;;462592;28;1167;-70
2023/09/26 00:21:16;;;;;;;2.90;2.22;;;;;;;;;;463295;28;1130;-70
2023/09/26 00:21:32;;;;;;;4.00;2.30;;;;;;;;;;463581;28;1282;-70
2023/09/26 00:21:47;;;;;;;5.67;2.47;;;;;;;;;;467857;28;923;-70
2023/09/26 00:22:02;;;;;;;5.22;2.50;;;;;;;;;;463274;28;1214;-69
2023/09/26 00:22:17;;;;;;;3.80;2.23;;;;;;;;;;465530;28;1089;-70
2023/09/26 00:22:33;;;;;;;5.10;2.30;;;;;;;;;;463931;28;1092;-70
2023/09/26 00:22:48;;;;;;;5.95;2.33;;;;;;;;;;465065;28;1230;-70
2023/09/26 00:23:07;;;;;;;4.07;2.10;;;;;;;;;;466486;28;1539;-69
2023/09/26 00:23:22;;;;;;;3.78;2.10;;;;;;;;;;466190;28;1355;-69
2023/09/26 00:23:38;;;;;;;4.03;2.17;;;;;;;;;;464138;28;1154;-69
2023/09/26 00:23:53;;;;;;;3.37;2.10;;;;;;;;;;465747;28;1029;-69
2023/09/26 00:24:08;;;;;;;3.35;2.00;;;;;;;;;;465352;28;1070;-69
2023/09/26 00:24:24;;;;;;;3.10;2.00;;;;;;;;;;467109;28;1272;-69
2023/09/26 00:24:39;;;;;;;2.80;2.13;;;;;;;;;;464138;28;1260;-69
2023/09/26 00:24:55;;;;;;;3.27;2.10;;;;;;;;;;464048;28;1318;-70
2023/09/26 00:25:10;;;;;;;3.40;2.10;;;;;;;;;;463486;28;1173;-69
2023/09/26 00:25:27;;;;;;;3.40;2.30;;;;;;;;;;464971;28;1175;-70
2023/09/26 00:25:44;;;;;;;3.23;2.20;;;;;;;;;;464361;28;1386;-69
2023/09/26 00:26:00;;;;;;;3.72;2.10;;;;;;;;;;464387;28;1152;-69
2023/09/26 00:26:15;;;;;;;3.73;2.20;;;;;;;;;;464459;28;1319;-69
2023/09/26 00:26:30;;;;;;;3.58;2.38;;;;;;;;;;463243;28;1271;-69
2023/09/26 00:26:46;;;;;;;5.10;2.40;;;;;;;;;;462271;28;1231;-69
2023/09/26 00:27:02;;;;;;;4.32;2.10;;;;;;;;;;463330;28;1376;-69
2023/09/26 00:27:20;;;;;;;3.95;2.15;;;;;;;;;;465407;28;935;-69
2023/09/26 00:27:36;;;;;;;4.38;2.30;;;;;;;;;;463423;28;1145;-69
2023/09/26 00:27:52;;;;;;;3.40;2.00;;;;;;;;;;464628;28;1210;-69
2023/09/26 00:28:07;;;;;;;3.28;2.10;;;;;;;;;;466331;28;1075;-70
2023/09/26 00:28:23;;;;;;;4.13;2.20;;;;;;;;;;466705;28;1124;-70
2023/09/26 00:28:38;;;;;;;3.72;2.10;;;;;;;;;;467249;28;1065;-70
2023/09/26 00:28:53;;;;;;;3.07;2.10;;;;;;;;;;467423;28;957;-69
2023/09/26 00:29:09;;;;;;;2.90;2.17;;;;;;;;;;464983;28;1201;-69
2023/09/26 00:29:24;;;;;;;2.90;2.08;;;;;;;;;;466244;28;1021;-69
2023/09/26 00:29:40;;;;;;;3.40;2.10;;;;;;;;;;467740;28;1039;-70
2023/09/26 00:29:55;;;;;;;3.80;2.13;;;;;;;;;;468908;28;1263;-69
2023/09/26 00:30:12;;;;;;;3.70;2.27;;;;;;;;;;465484;28;998;-69
2023/09/26 00:30:27;;;;;;;3.95;2.40;;;;;;;;;;473798;28;1431;-69
2023/09/26 00:30:42;;;;;;;4.20;2.33;;;;;;;;;;464820;28;1257;-69
2023/09/26 00:31:03;;;;;;;3.87;2.20;;;;;;;;;;463379;28;1263;-69
2023/09/26 00:31:18;;;;;;;4.30;2.33;;;;;;;;;;467926;28;1900;-70
2023/09/26 00:31:35;;;;;;;4.00;2.30;;;;;;;;;;468100;28;1081;-69
2023/09/26 00:31:51;;;;;;;2.90;2.30;;;;;;;;;;464049;28;1036;-69
2023/09/26 00:32:06;;;;;;;3.55;2.40;;;;;;;;;;464692;28;1322;-70
2023/09/26 00:32:22;;;;;;;4.57;2.50;;;;;;;;;;465245;28;1304;-70
2023/09/26 00:32:38;;;;;;;4.07;2.40;;;;;;;;;;465293;28;1132;-69
2023/09/26 00:32:53;;;;;;;3.53;2.30;;;;;;;;;;465662;28;1153;-69
2023/09/26 00:33:09;;;;;;;3.70;2.28;;;;;;;;;;465254;28;1060;-69
2023/09/26 00:33:25;;;;;;;3.60;2.17;;;;;;;;;;467426;28;1197;-70
2023/09/26 00:33:40;;;;;;;3.35;2.10;;;;;;;;;;466278;28;1116;-69
2023/09/26 00:33:55;;;;;;;3.40;2.17;;;;;;;;;;466351;28;1076;-70
2023/09/26 00:34:11;;;;;;;2.90;2.10;;;;;;;;;;464591;28;1190;-70
2023/09/26 00:34:28;;;;;;;4.85;2.28;;;;;;;;;;464396;28;2085;-70
2023/09/26 00:34:44;;;;;;;4.97;2.30;;;;;;;;;;466320;28;1062;-69
2023/09/26 00:35:01;;;;;;;3.38;2.20;;;;;;;;;;465264;28;2129;-69
2023/09/26 00:35:17;;;;;;;4.30;2.50;;;;;;;;;;466033;28;1076;-69
2023/09/26 00:35:33;;;;;;;4.25;2.50;;;;;;;;;;464111;28;1540;-69
2023/09/26 00:35:48;;;;;;;4.60;2.47;;;;;;;;;;467007;28;1072;-69
2023/09/26 00:36:10;;;;;;;4.43;2.60;;;;;;;;;;464591;28;1032;-69
2023/09/26 00:36:25;;;;;;;4.32;2.40;;;;;;;;;;465604;28;1556;-69
2023/09/26 00:36:41;;;;;;;4.87;2.40;;;;;;;;;;465243;28;1019;-69
2023/09/26 00:36:56;;;;;;;4.40;2.30;;;;;;;;;;462198;28;1179;-69
2023/09/26 00:37:11;;;;;;;3.50;2.20;;;;;;;;;;463518;28;1245;-69
2023/09/26 00:37:26;;;;;;;3.50;2.17;;;;;;;;;;463751;28;1601;-69
2023/09/26 00:37:43;;;;;;;4.93;2.40;;;;;;;;;;465734;28;1202;-69
2023/09/26 00:37:58;;;;;;;5.15;2.65;;;;;;;;;;467024;28;1093;-70
2023/09/26 00:38:14;;;;;;;4.63;2.53;;;;;;;;;;465751;28;1039;-70
2023/09/26 00:38:29;;;;;;;4.43;2.53;;;;;;;;;;465444;28;1068;-70
2023/09/26 00:38:44;;;;;;;4.10;2.53;;;;;;;;;;464009;28;1240;-70
2023/09/26 00:39:00;;;;;;;3.87;2.50;;;;;;;;;;463974;28;1082;-69
2023/09/26 00:39:15;;;;;;;3.78;2.40;;;;;;;;;;463590;28;1054;-70
2023/09/26 00:39:31;;;;;;;3.40;2.20;;;;;;;;;;463846;28;1143;-69
2023/09/26 00:39:46;;;;;;;4.22;2.20;;;;;;;;;;464218;28;1302;-69
2023/09/26 00:40:02;;;;;;;4.93;2.40;;;;;;;;;;462468;28;1208;-69
2023/09/26 00:40:21;;;;;;;3.67;2.30;;;;;;;;;;462438;28;1302;-69
2023/09/26 00:40:40;;;;;;;3.20;2.40;;;;;;;;;;460728;28;1241;-70
2023/09/26 00:40:55;;;;;;;3.60;2.30;;;;;;;;;;462546;28;1273;-70
2023/09/26 00:41:10;;;;;;;3.90;2.40;;;;;;;;;;461215;28;1207;-69
2023/09/26 00:41:26;;;;;;;3.93;2.50;;;;;;;;;;462062;28;1110;-69
2023/09/26 00:41:41;;;;;;;4.00;2.30;;;;;;;;;;462801;28;1249;-69
2023/09/26 00:41:57;;;;;;;3.50;2.28;;;;;;;;;;465139;28;1120;-69
2023/09/26 00:42:12;;;;;;;3.23;2.27;;;;;;;;;;463675;28;1309;-69
2023/09/26 00:42:27;;;;;;;4.57;2.33;;;;;;;;;;464910;28;913;-69
2023/09/26 00:42:43;;;;;;;4.72;2.42;;;;;;;;;;462834;28;1142;-69
2023/09/26 00:42:59;;;;;;;3.10;2.30;;;;;;;;;;464081;28;1373;-69
2023/09/26 00:43:22;;;;;;;3.80;2.17;;;;;;;;;;464605;28;1446;-76
2023/09/26 00:43:37;;;;;;;4.45;2.38;;;;;;;;;;463084;28;1219;-75
2023/09/26 00:43:52;;;;;;;4.00;2.47;;;;;;;;;;461710;28;1127;-75
2023/09/26 00:44:08;;;;;;;3.58;2.30;;;;;;;;;;462025;28;1286;-76
2023/09/26 00:44:23;;;;;;;3.03;2.20;;;;;;;;;;459719;28;1223;-76
2023/09/26 00:44:38;;;;;;;2.90;2.13;;;;;;;;;;463236;28;1160;-76
2023/09/26 00:44:55;;;;;;;3.00;2.25;;;;;;;;;;462393;28;1232;-75
2023/09/26 00:45:11;;;;;;;3.92;2.38;;;;;;;;;;462834;28;1335;-76
2023/09/26 00:45:27;;;;;;;4.18;2.20;;;;;;;;;;462534;28;1280;-76
2023/09/26 00:45:43;;;;;;;4.45;2.35;;;;;;;;;;463027;28;907;-76
2023/09/26 00:46:00;;;;;;;4.03;2.55;;;;;;;;;;462738;28;1167;-76
2023/09/26 00:46:16;;;;;;;3.72;2.63;;;;;;;;;;463160;28;1109;-75
2023/09/26 00:46:32;;;;;;;3.40;2.50;;;;;;;;;;461834;28;1320;-75
2023/09/26 00:46:48;;;;;;;2.85;2.22;;;;;;;;;;461996;28;1561;-77
2023/09/26 00:47:03;;;;;;;4.05;2.20;;;;;;;;;;464613;28;1189;-75
2023/09/26 00:47:19;;;;;;;4.93;2.10;;;;;;;;;;461022;28;1209;-76
2023/09/26 00:47:35;;;;;;;4.57;2.22;;;;;;;;;;458759;29;1234;-75
2023/09/26 00:47:51;;;;;;;4.57;2.55;;;;;;;;;;461129;28;1240;-76
2023/09/26 00:48:07;;;;;;;4.63;2.45;;;;;;;;;;460685;28;1432;-75
2023/09/26 00:48:26;;;;;;;3.72;2.20;;;;;;;;;;460901;28;1261;-75
2023/09/26 00:48:42;;;;;;;4.47;2.20;;;;;;;;;;462840;28;1525;-76
2023/09/26 00:48:57;;;;;;;4.68;2.30;;;;;;;;;;462446;28;1116;-75
2023/09/26 00:49:13;;;;;;;5.40;2.50;;;;;;;;;;463455;28;1486;-75
2023/09/26 00:49:31;;;;;;;5.32;2.67;;;;;;;;;;464035;28;1251;-75
2023/09/26 00:49:47;;;;;;;3.97;2.50;;;;;;;;;;465062;28;949;-75
2023/09/26 00:50:04;;;;;;;3.37;2.30;;;;;;;;;;464763;28;1216;-75
2023/09/26 00:50:22;;;;;;;2.65;2.25;;;;;;;;;;464743;28;1301;-76
2023/09/26 00:50:37;;;;;;;2.95;2.33;;;;;;;;;;462562;28;1506;-75
2023/09/26 00:50:54;;;;;;;3.53;2.40;;;;;;;;;;461297;28;1232;-75
2023/09/26 00:51:09;;;;;;;4.53;2.40;;;;;;;;;;460030;29;1189;-75
2023/09/26 00:51:25;;;;;;;4.10;2.23;;;;;;;;;;462323;28;1113;-75
2023/09/26 00:51:40;;;;;;;3.20;2.10;;;;;;;;;;463958;28;1499;-75
2023/09/26 00:51:57;;;;;;;3.93;2.23;;;;;;;;;;464169;28;1084;-75
2023/09/26 00:52:13;;;;;;;4.30;2.38;;;;;;;;;;464935;28;1207;-75
2023/09/26 00:52:29;;;;;;;4.60;2.47;;;;;;;;;;464669;28;1324;-76
2023/09/26 00:52:46;;;;;;;4.10;2.38;;;;;;;;;;464233;28;1518;-76
2023/09/26 00:53:03;;;;;;;4.32;2.20;;;;;;;;;;464403;28;995;-75
2023/09/26 00:53:19;;;;;;;4.85;2.30;;;;;;;;;;464316;28;1162;-75
2023/09/26 00:53:38;;;;;;;3.65;2.47;;;;;;;;;;467168;28;1052;-75
2023/09/26 00:53:55;;;;;;;3.45;2.40;;;;;;;;;;465706;28;1227;-76
2023/09/26 00:54:11;;;;;;;3.65;2.40;;;;;;;;;;465341;28;1407;-75
2023/09/26 00:54:27;;;;;;;4.25;2.50;;;;;;;;;;464820;28;1290;-75
2023/09/26 00:54:43;;;;;;;4.03;2.33;;;;;;;;;;466578;28;1171;-76
2023/09/26 00:54:59;;;;;;;3.00;2.30;;;;;;;;;;465428;28;2037;-75
2023/09/26 00:55:17;;;;;;;4.38;2.40;;;;;;;;;;463621;28;1118;-75
2023/09/26 00:55:32;;;;;;;4.70;2.47;;;;;;;;;;467666;28;1336;-75
2023/09/26 00:55:52;;;;;;;2.95;2.20;;;;;;;;;;467860;28;1454;-76
2023/09/26 00:56:08;;;;;;;3.80;2.20;;;;;;;;;;467769;28;1289;-76
2023/09/26 00:56:24;;;;;;;3.60;2.30;;;;;;;;;;465799;28;1721;-75
2023/09/26 00:56:40;;;;;;;3.08;2.33;;;;;;;;;;463648;28;1559;-75
2023/09/26 00:56:56;;;;;;;4.40;2.28;;;;;;;;;;464030;28;1169;-76
2023/09/26 00:57:12;;;;;;;3.90;2.38;;;;;;;;;;462074;28;1087;-76
2023/09/26 00:57:27;;;;;;;3.90;2.50;;;;;;;;;;464322;28;1180;-75
2023/09/26 00:57:44;;;;;;;3.53;2.40;;;;;;;;;;464720;28;1355;-75
2023/09/26 00:58:01;;;;;;;3.65;2.35;;;;;;;;;;462039;28;1118;-76
2023/09/26 00:58:17;;;;;;;3.72;2.30;;;;;;;;;;462217;28;1209;-75
2023/09/26 00:58:33;;;;;;;3.28;2.40;;;;;;;;;;463033;28;1184;-76
2023/09/26 00:58:49;;;;;;;3.08;2.33;;;;;;;;;;464129;28;1108;-76
2023/09/26 00:59:06;;;;;;;2.67;2.20;;;;;;;;;;463861;28;1187;-76
2023/09/26 00:59:22;;;;;;;3.30;2.40;;;;;;;;;;464907;28;1254;-75
2023/09/26 00:59:39;;;;;;;3.20;2.38;;;;;;;;;;466251;28;1159;-75
2023/09/26 00:59:54;;;;;;;3.53;2.13;;;;;;;;;;467684;28;1269;-75
2023/09/26 01:00:14;;;;;;;3.60;2.20;;;;;;;;;;464726;28;1189;-75
2023/09/26 01:00:30;;;;;;;3.60;2.55;;;;;;;;;;464118;28;1339;-76
2023/09/26 01:00:49;;;;;;;4.03;2.60;;;;;;;;;;463556;28;1030;-75
2023/09/26 01:01:05;;;;;;;4.18;2.50;;;;;;;;;;464314;28;929;-76
2023/09/26 01:01:25;;;;;;;3.50;2.30;;;;;;;;;;462792;28;988;-76
2023/09/26 01:01:42;;;;;;;3.58;2.17;;;;;;;;;;467546;28;1664;-75
2023/09/26 01:01:57;;;;;;;4.05;2.33;;;;;;;;;;466096;28;1075;-76
2023/09/26 01:02:13;;;;;;;4.13;2.30;;;;;;;;;;467259;28;1338;-76
2023/09/26 01:02:28;;;;;;;4.10;2.23;;;;;;;;;;467328;28;1030;-76
2023/09/26 01:02:44;;;;;;;4.10;2.22;;;;;;;;;;464922;28;1322;-75
2023/09/26 01:03:00;;;;;;;3.70;2.20;;;;;;;;;;462921;28;1293;-76
2023/09/26 01:03:16;;;;;;;4.47;2.20;;;;;;;;;;461638;28;1241;-76
2023/09/26 01:03:33;;;;;;;4.93;2.33;;;;;;;;;;462103;28;1154;-75
2023/09/26 01:03:48;;;;;;;5.78;2.50;;;;;;;;;;462405;28;942;-75
2023/09/26 01:04:04;;;;;;;6.03;2.47;;;;;;;;;;464361;28;1326;-76
2023/09/26 01:04:21;;;;;;;4.18;2.30;;;;;;;;;;464890;28;1268;-75
2023/09/26 01:04:37;;;;;;;3.65;2.30;;;;;;;;;;463031;28;1138;-75
2023/09/26 01:04:53;;;;;;;3.80;2.40;;;;;;;;;;464325;28;1272;-75
2023/09/26 01:05:09;;;;;;;4.97;2.45;;;;;;;;;;464578;28;1181;-75
2023/09/26 01:05:26;;;;;;;4.83;2.47;;;;;;;;;;465240;28;1314;-75
2023/09/26 01:05:42;;;;;;;4.18;2.47;;;;;;;;;;465734;28;1405;-75
2023/09/26 01:05:58;;;;;;;3.97;2.50;;;;;;;;;;464023;28;1152;-75
2023/09/26 01:06:14;;;;;;;4.72;2.53;;;;;;;;;;459747;29;1205;-75
2023/09/26 01:06:30;;;;;;;5.50;2.50;;;;;;;;;;461632;28;1152;-75
2023/09/26 01:06:47;;;;;;;3.88;2.33;;;;;;;;;;462870;28;1072;-75
2023/09/26 01:07:02;;;;;;;3.33;2.40;;;;;;;;;;464365;28;1120;-76
2023/09/26 01:07:17;;;;;;;3.40;2.30;;;;;;;;;;463828;28;1300;-75
2023/09/26 01:07:35;;;;;;;2.90;2.30;;;;;;;;;;463010;28;1195;-76
2023/09/26 01:07:51;;;;;;;2.85;2.22;;;;;;;;;;465138;28;1002;-75
2023/09/26 01:08:07;;;;;;;4.03;2.42;;;;;;;;;;466592;28;1307;-76
2023/09/26 01:08:22;;;;;;;4.47;2.40;;;;;;;;;;467572;28;1211;-76
2023/09/26 01:08:38;;;;;;;4.10;2.40;;;;;;;;;;465645;28;1052;-75
2023/09/26 01:08:53;;;;;;;4.10;2.40;;;;;;;;;;463362;28;1006;-75
2023/09/26 01:09:10;;;;;;;3.45;2.40;;;;;;;;;;465110;28;1113;-75
2023/09/26 01:09:25;;;;;;;3.47;2.50;;;;;;;;;;466293;28;891;-75
2023/09/26 01:09:41;;;;;;;4.30;2.47;;;;;;;;;;465303;28;899;-76
2023/09/26 01:09:56;;;;;;;4.15;2.30;;;;;;;;;;466534;28;998;-76
2023/09/26 01:10:12;;;;;;;3.87;2.40;;;;;;;;;;465061;28;1054;-76
2023/09/26 01:10:27;;;;;;;4.30;2.30;;;;;;;;;;464275;28;1572;-76
2023/09/26 01:10:42;;;;;;;5.10;2.30;;;;;;;;;;462915;28;1174;-75
2023/09/26 01:10:58;;;;;;;4.32;2.50;;;;;;;;;;463851;28;1100;-75
2023/09/26 01:11:15;;;;;;;3.75;2.50;;;;;;;;;;463885;28;1164;-75
2023/09/26 01:11:30;;;;;;;4.03;2.40;;;;;;;;;;461849;28;1237;-76
2023/09/26 01:11:46;;;;;;;4.13;2.40;;;;;;;;;;463139;28;1064;-76
2023/09/26 01:12:01;;;;;;;3.67;2.40;;;;;;;;;;462426;28;1139;-76
2023/09/26 01:12:16;;;;;;;3.65;2.50;;;;;;;;;;462842;28;1193;-75
2023/09/26 01:12:32;;;;;;;3.40;2.50;;;;;;;;;;463183;28;1015;-75
2023/09/26 01:12:47;;;;;;;3.03;2.30;;;;;;;;;;463948;28;1116;-75
2023/09/26 01:13:03;;;;;;;4.07;2.30;;;;;;;;;;464011;28;1343;-75
2023/09/26 01:13:19;;;;;;;4.18;2.50;;;;;;;;;;464089;28;1295;-75
2023/09/26 01:13:34;;;;;;;3.93;2.50;;;;;;;;;;465900;28;1054;-76
2023/09/26 01:13:49;;;;;;;3.30;2.30;;;;;;;;;;464987;28;1130;-76
2023/09/26 01:14:05;;;;;;;3.40;2.30;;;;;;;;;;464920;28;1330;-76
2023/09/26 01:14:20;;;;;;;3.57;2.30;;;;;;;;;;466128;28;1086;-76
2023/09/26 01:14:35;;;;;;;3.45;2.30;;;;;;;;;;467150;28;1017;-75
2023/09/26 01:14:51;;;;;;;3.73;2.50;;;;;;;;;;467518;28;1372;-75
2023/09/26 01:15:07;;;;;;;3.73;2.50;;;;;;;;;;464222;28;1946;-75
2023/09/26 01:15:38;;;;;;;3.63;2.35;;;;;;;;;;463954;28;1379;-75
2023/09/26 01:15:54;;;;;;;4.43;2.70;;;;;;;;;;465050;28;1506;-75
2023/09/26 01:16:15;;;;;;;4.17;2.57;;;;;;;;;;463219;28;1042;-75
2023/09/26 01:16:30;;;;;;;4.90;2.50;;;;;;;;;;464924;28;1159;-75
2023/09/26 01:16:45;;;;;;;4.63;2.50;;;;;;;;;;464385;28;1234;-76
2023/09/26 01:17:01;;;;;;;3.60;2.50;;;;;;;;;;467633;28;1168;-76
2023/09/26 01:17:16;;;;;;;2.90;2.40;;;;;;;;;;467319;28;1073;-76
2023/09/26 01:17:32;;;;;;;3.87;2.50;;;;;;;;;;468094;28;871;-76
2023/09/26 01:17:47;;;;;;;4.45;2.58;;;;;;;;;;470856;28;1180;-75
2023/09/26 01:18:08;;;;;;;3.37;2.37;;;;;;;;;;465092;28;1171;-75
2023/09/26 01:18:23;;;;;;;4.40;2.40;;;;;;;;;;467111;28;903;-75
2023/09/26 01:18:38;;;;;;;5.47;2.58;;;;;;;;;;465475;28;1091;-76
2023/09/26 01:18:54;;;;;;;4.33;2.57;;;;;;;;;;465233;28;1067;-75
2023/09/26 01:19:09;;;;;;;3.00;2.30;;;;;;;;;;465507;28;1216;-76
2023/09/26 01:19:25;;;;;;;3.35;2.30;;;;;;;;;;464368;28;1016;-75
2023/09/26 01:19:40;;;;;;;3.40;2.30;;;;;;;;;;465109;28;1203;-75
2023/09/26 01:19:55;;;;;;;3.07;2.30;;;;;;;;;;464073;28;1062;-75
2023/09/26 01:20:15;;;;;;;3.45;2.40;;;;;;;;;;463486;28;951;-76
2023/09/26 01:20:31;;;;;;;3.60;2.50;;;;;;;;;;462990;28;1420;-76
2023/09/26 01:20:46;;;;;;;3.70;2.50;;;;;;;;;;463525;28;1094;-76
2023/09/26 01:21:01;;;;;;;4.00;2.55;;;;;;;;;;463619;28;1071;-76
2023/09/26 01:21:17;;;;;;;3.17;2.23;;;;;;;;;;467565;28;1453;-76
2023/09/26 01:21:33;;;;;;;2.92;2.10;;;;;;;;;;463567;28;1089;-76
2023/09/26 01:21:48;;;;;;;3.15;2.30;;;;;;;;;;464157;28;1090;-75
2023/09/26 01:22:04;;;;;;;3.70;2.63;;;;;;;;;;463922;28;919;-75
2023/09/26 01:22:20;;;;;;;4.17;2.63;;;;;;;;;;463732;28;1180;-76
2023/09/26 01:22:36;;;;;;;3.92;2.60;;;;;;;;;;464046;28;1033;-76
2023/09/26 01:22:52;;;;;;;3.40;2.50;;;;;;;;;;464881;28;1007;-75
2023/09/26 01:23:10;;;;;;;3.00;2.38;;;;;;;;;;467799;28;1469;-75
2023/09/26 01:23:27;;;;;;;3.33;2.50;;;;;;;;;;465852;28;1071;-75
2023/09/26 01:23:48;;;;;;;4.22;2.50;;;;;;;;;;466213;28;1470;-75
2023/09/26 01:24:03;;;;;;;3.58;2.35;;;;;;;;;;464319;28;1131;-75
2023/09/26 01:24:19;;;;;;;2.60;2.30;;;;;;;;;;463488;28;1387;-75
2023/09/26 01:24:37;;;;;;;2.97;2.50;;;;;;;;;;465150;28;1141;-75
2023/09/26 01:24:53;;;;;;;3.40;2.53;;;;;;;;;;464062;28;1012;-76
2023/09/26 01:25:08;;;;;;;3.47;2.43;;;;;;;;;;466267;28;1125;-75
2023/09/26 01:25:24;;;;;;;3.10;2.33;;;;;;;;;;465403;28;973;-75
2023/09/26 01:25:40;;;;;;;2.50;2.10;;;;;;;;;;465445;28;1116;-75
2023/09/26 01:25:57;;;;;;;2.83;2.13;;;;;;;;;;466175;28;904;-75
2023/09/26 01:26:12;;;;;;;3.72;2.42;;;;;;;;;;466767;28;946;-75
2023/09/26 01:26:36;;;;;;;3.77;2.40;;;;;;;;;;465583;28;1121;-75
2023/09/26 01:26:51;;;;;;;3.53;2.50;;;;;;;;;;465997;28;1196;-75
2023/09/26 01:27:07;;;;;;;3.37;2.30;;;;;;;;;;463897;28;1192;-75
2023/09/26 01:27:22;;;;;;;3.50;2.40;;;;;;;;;;464315;28;1262;-75
2023/09/26 01:27:37;;;;;;;2.95;2.38;;;;;;;;;;466889;28;1212;-75
2023/09/26 01:27:53;;;;;;;3.13;2.37;;;;;;;;;;464567;28;1049;-75
2023/09/26 01:28:10;;;;;;;4.20;2.40;;;;;;;;;;463926;28;1247;-75
2023/09/26 01:28:25;;;;;;;3.75;2.20;;;;;;;;;;463528;28;1227;-75
2023/09/26 01:28:41;;;;;;;2.90;2.30;;;;;;;;;;461824;28;1120;-75
2023/09/26 01:28:56;;;;;;;3.73;2.43;;;;;;;;;;463043;28;1154;-75
2023/09/26 01:29:11;;;;;;;4.00;2.45;;;;;;;;;;464906;28;939;-76
2023/09/26 01:29:26;;;;;;;3.33;2.40;;;;;;;;;;461888;28;1130;-76
2023/09/26 01:29:42;;;;;;;4.87;2.60;;;;;;;;;;461663;28;1239;-75
2023/09/26 01:29:58;;;;;;;5.32;2.53;;;;;;;;;;463210;28;1424;-75
2023/09/26 01:30:14;;;;;;;4.50;2.40;;;;;;;;;;464347;28;1436;-75
2023/09/26 01:30:30;;;;;;;5.13;2.70;;;;;;;;;;464304;28;879;-76
2023/09/26 01:30:46;;;;;;;5.15;2.70;;;;;;;;;;466572;28;1058;-75
2023/09/26 01:31:01;;;;;;;4.43;2.60;;;;;;;;;;465743;28;1103;-75
2023/09/26 01:31:17;;;;;;;3.53;2.50;;;;;;;;;;463948;28;1056;-76
2023/09/26 01:31:35;;;;;;;3.67;2.50;;;;;;;;;;465978;28;1390;-76
2023/09/26 01:31:51;;;;;;;4.47;2.60;;;;;;;;;;464457;28;1307;-75
2023/09/26 01:32:06;;;;;;;3.80;2.60;;;;;;;;;;465586;28;1224;-75
2023/09/26 01:32:23;;;;;;;3.63;2.50;;;;;;;;;;465846;28;1183;-75
2023/09/26 01:32:38;;;;;;;3.70;2.40;;;;;;;;;;465316;28;1013;-75
2023/09/26 01:32:53;;;;;;;3.80;2.50;;;;;;;;;;466059;28;1191;-75
2023/09/26 01:33:16;;;;;;;4.57;2.63;;;;;;;;;;466050;28;977;-75
2023/09/26 01:33:32;;;;;;;4.50;2.63;;;;;;;;;;466217;28;1308;-75
2023/09/26 01:33:47;;;;;;;4.43;2.53;;;;;;;;;;464596;28;1105;-75
2023/09/26 01:34:03;;;;;;;3.57;2.40;;;;;;;;;;463310;28;1108;-75
2023/09/26 01:34:19;;;;;;;2.90;2.40;;;;;;;;;;461000;28;1181;-76
2023/09/26 01:34:34;;;;;;;3.07;2.60;;;;;;;;;;461032;29;1148;-75
2023/09/26 01:34:49;;;;;;;4.90;2.53;;;;;;;;;;460953;28;1093;-75
2023/09/26 01:35:05;;;;;;;5.77;2.67;;;;;;;;;;460154;28;1978;-76
2023/09/26 01:35:21;;;;;;;4.00;2.70;;;;;;;;;;462632;28;1485;-76
2023/09/26 01:35:37;;;;;;;3.27;2.30;;;;;;;;;;464691;28;1304;-75
2023/09/26 01:35:52;;;;;;;3.25;2.22;;;;;;;;;;465794;28;1101;-76
2023/09/26 01:36:08;;;;;;;2.97;2.40;;;;;;;;;;467002;28;1060;-75
2023/09/26 01:36:26;;;;;;;2.70;2.40;;;;;;;;;;466770;28;1367;-75
2023/09/26 01:36:43;;;;;;;2.80;2.50;;;;;;;;;;467016;28;966;-76
2023/09/26 01:36:58;;;;;;;3.35;2.60;;;;;;;;;;465900;28;966;-75
2023/09/26 01:37:13;;;;;;;3.38;2.60;;;;;;;;;;466367;28;1113;-75
2023/09/26 01:37:28;;;;;;;3.13;2.40;;;;;;;;;;468010;28;1658;-75
2023/09/26 01:37:44;;;;;;;3.43;2.40;;;;;;;;;;468549;28;1195;-76
2023/09/26 01:37:59;;;;;;;3.33;2.30;;;;;;;;;;469313;28;1173;-75
2023/09/26 01:38:17;;;;;;;3.00;2.30;;;;;;;;;;472859;28;1095;-75
2023/09/26 01:38:32;;;;;;;2.65;2.40;;;;;;;;;;470534;28;1166;-75
2023/09/26 01:38:47;;;;;;;2.80;2.43;;;;;;;;;;468624;28;1256;-76
2023/09/26 01:39:03;;;;;;;2.43;2.17;;;;;;;;;;464644;28;1094;-75
2023/09/26 01:39:18;;;;;;;3.30;2.20;;;;;;;;;;464224;28;962;-75
2023/09/26 01:39:34;;;;;;;3.53;2.33;;;;;;;;;;465662;28;1082;-75
2023/09/26 01:39:49;;;;;;;3.17;2.30;;;;;;;;;;465100;28;1212;-76
2023/09/26 01:40:15;;;;;;;5.80;2.50;;;;;;;;;;467917;28;1279;-75
2023/09/26 01:40:30;;;;;;;5.10;2.55;;;;;;;;;;469513;28;888;-75